Time;durP1;ratioP1;P1;durP2;ratioP2;P2;SDS_P1;SDS_P2;PMS_P1;PMS_P2;Temp;Humidity;BMP_temperature;BMP_pressure;BME280_temperature;BME280_humidity;BME280_pressure;Samples;Min_cycle;Max_cycle;Signal;HPM_P1;HPM_P2
2021/07/23 00:00:34;;;;;;;2.00;1.80;;;24.70;52.40;;;;;;5049477;28;20025;-72
2021/07/23 00:03:00;;;;;;;2.60;2.22;;;24.70;52.50;;;;;;5037659;28;20044;-72
2021/07/23 00:05:26;;;;;;;2.00;1.80;;;24.60;52.80;;;;;;5037712;28;20076;-72
2021/07/23 00:07:51;;;;;;;2.30;1.98;;;24.60;53.20;;;;;;5037519;28;20029;-72
2021/07/23 00:10:17;;;;;;;2.35;2.15;;;24.50;53.40;;;;;;5037685;28;20032;-71
2021/07/23 00:12:43;;;;;;;2.00;1.80;;;24.50;52.90;;;;;;5037346;28;20033;-72
2021/07/23 00:15:09;;;;;;;2.25;2.05;;;24.50;52.60;;;;;;5037576;28;20083;-72
2021/07/23 00:17:35;;;;;;;1.85;1.63;;;24.40;52.50;;;;;;5036035;28;20424;-71
2021/07/23 00:20:01;;;;;;;2.67;2.20;;;24.50;52.80;;;;;;5037449;28;20021;-72
2021/07/23 00:22:26;;;;;;;2.10;1.90;;;24.50;52.90;;;;;;5037308;28;20037;-71
2021/07/23 00:24:52;;;;;;;2.78;2.10;;;24.40;52.70;;;;;;5037001;28;20767;-72
2021/07/23 00:27:18;;;;;;;2.30;1.90;;;24.30;52.90;;;;;;5037246;28;20105;-72
2021/07/23 00:29:47;;;;;;;2.30;2.10;;;24.30;52.80;;;;;;5037251;28;20495;-71
2021/07/23 00:32:12;;;;;;;2.20;1.98;;;24.20;53.40;;;;;;5049840;28;20049;-71
2021/07/23 00:34:38;;;;;;;3.38;2.17;;;24.20;53.20;;;;;;5052368;28;20040;-72
2021/07/23 00:37:04;;;;;;;2.08;1.88;;;24.30;53.30;;;;;;5037244;28;20021;-72
2021/07/23 00:39:29;;;;;;;1.90;1.70;;;24.20;53.00;;;;;;5037059;28;20025;-72
2021/07/23 00:41:55;;;;;;;2.17;1.90;;;24.20;53.30;;;;;;5037077;28;20149;-71
2021/07/23 00:44:21;;;;;;;3.72;2.30;;;24.20;53.80;;;;;;5048142;28;20018;-71
2021/07/23 00:46:46;;;;;;;2.30;1.85;;;24.20;53.40;;;;;;5036984;28;20045;-72
2021/07/23 00:49:12;;;;;;;2.17;1.90;;;24.10;53.50;;;;;;5040087;28;20440;-71
2021/07/23 00:51:38;;;;;;;2.70;2.10;;;24.10;53.70;;;;;;5036890;28;20495;-71
2021/07/23 00:54:06;;;;;;;3.28;2.28;;;24.00;54.20;;;;;;5047853;28;20032;-72
2021/07/23 00:56:32;;;;;;;2.15;1.85;;;24.00;54.00;;;;;;5036682;28;20427;-71
2021/07/23 00:58:59;;;;;;;2.65;2.00;;;23.90;54.50;;;;;;5035393;28;20026;-72
2021/07/23 01:01:25;;;;;;;2.80;1.95;;;23.90;54.50;;;;;;5038592;28;20032;-72
2021/07/23 01:03:51;;;;;;;3.30;2.30;;;23.90;54.40;;;;;;5035328;28;20018;-72
2021/07/23 01:06:17;;;;;;;2.22;2.03;;;23.80;54.40;;;;;;5036504;28;20033;-72
2021/07/23 01:08:43;;;;;;;2.75;1.98;;;23.80;54.70;;;;;;5036205;28;20075;-71
2021/07/23 01:11:11;;;;;;;2.58;2.03;;;23.80;54.80;;;;;;5036419;28;20083;-72
2021/07/23 01:13:39;;;;;;;2.63;1.98;;;23.70;55.20;;;;;;5036378;28;20052;-71
2021/07/23 01:16:05;;;;;;;2.10;1.90;;;23.70;55.10;;;;;;5040937;28;20033;-71
2021/07/23 01:18:31;;;;;;;2.17;1.98;;;23.70;55.10;;;;;;5035056;28;20052;-71
2021/07/23 01:20:58;;;;;;;2.28;2.08;;;23.60;55.30;;;;;;5036146;28;20029;-72
2021/07/23 01:23:31;;;;;;;2.65;1.65;;;23.60;55.70;;;;;;5036204;28;20551;-72
2021/07/23 01:25:58;;;;;;;2.85;2.08;;;23.60;55.60;;;;;;5035558;28;20053;-71
2021/07/23 01:28:25;;;;;;;2.35;2.03;;;23.60;55.40;;;;;;5036139;28;20026;-72
2021/07/23 01:30:51;;;;;;;2.47;2.20;;;23.50;55.60;;;;;;5035825;28;20082;-72
2021/07/23 01:33:16;;;;;;;2.60;1.90;;;23.40;55.90;;;;;;5054931;28;20056;-71
2021/07/23 01:35:42;;;;;;;2.05;1.80;;;23.40;56.00;;;;;;5055821;28;20056;-71
2021/07/23 01:38:09;;;;;;;2.30;2.10;;;23.40;55.80;;;;;;5054380;28;20104;-72
2021/07/23 01:40:34;;;;;;;2.22;2.00;;;23.40;56.00;;;;;;5041815;28;20479;-71
2021/07/23 01:43:00;;;;;;;2.10;1.83;;;23.50;55.90;;;;;;5035875;28;20084;-71
2021/07/23 01:45:26;;;;;;;2.00;1.80;;;23.40;56.00;;;;;;5035701;28;20067;-72
2021/07/23 01:47:53;;;;;;;2.58;1.92;;;23.40;56.00;;;;;;5035710;28;20060;-72
2021/07/23 01:50:19;;;;;;;2.33;2.13;;;23.40;55.80;;;;;;5035727;28;20025;-71
2021/07/23 01:52:45;;;;;;;2.90;2.30;;;23.30;56.00;;;;;;5052276;28;20410;-71
2021/07/23 01:55:11;;;;;;;2.53;2.25;;;23.30;56.40;;;;;;5041914;28;20068;-72
2021/07/23 01:57:37;;;;;;;2.50;2.30;;;23.20;56.50;;;;;;5035711;28;20064;-72
2021/07/23 02:00:06;;;;;;;2.22;2.03;;;23.20;56.60;;;;;;5039319;28;20025;-71
2021/07/23 02:02:34;;;;;;;2.88;1.92;;;23.20;56.60;;;;;;5045367;28;20044;-71
2021/07/23 02:05:00;;;;;;;2.28;1.90;;;23.20;56.60;;;;;;5035554;28;20068;-71
2021/07/23 02:07:29;;;;;;;2.70;1.90;;;23.20;57.00;;;;;;5035432;28;20040;-71
2021/07/23 02:09:55;;;;;;;2.20;2.00;;;23.10;56.70;;;;;;5035368;28;20021;-71
2021/07/23 02:12:21;;;;;;;2.78;2.13;;;23.10;56.80;;;;;;5033688;28;20025;-71
2021/07/23 02:14:46;;;;;;;2.08;1.88;;;23.00;57.20;;;;;;5038431;28;20085;-71
2021/07/23 02:17:15;;;;;;;2.35;2.03;;;23.00;57.20;;;;;;5035291;28;20028;-71
2021/07/23 02:19:41;;;;;;;3.65;2.40;;;23.10;56.90;;;;;;5035231;28;20029;-72
2021/07/23 02:22:06;;;;;;;2.42;2.22;;;23.00;56.90;;;;;;5034027;28;20032;-72
2021/07/23 02:24:32;;;;;;;2.55;2.33;;;23.00;56.70;;;;;;5035278;28;20045;-71
2021/07/23 02:26:58;;;;;;;2.45;2.03;;;23.00;57.40;;;;;;5034881;28;20030;-71
2021/07/23 02:29:24;;;;;;;2.38;2.00;;;23.00;57.10;;;;;;5054380;28;20551;-72
2021/07/23 02:31:50;;;;;;;3.38;1.95;;;22.90;57.60;;;;;;5054830;28;20060;-72
2021/07/23 02:34:16;;;;;;;2.28;2.08;;;22.90;57.20;;;;;;5048901;28;20029;-72
2021/07/23 02:36:42;;;;;;;2.67;2.28;;;22.90;57.20;;;;;;5033743;28;20024;-71
2021/07/23 02:39:08;;;;;;;3.15;2.05;;;23.00;57.30;;;;;;5035024;28;20373;-71
2021/07/23 02:41:34;;;;;;;2.50;2.03;;;22.80;57.40;;;;;;5035166;28;20021;-71
2021/07/23 02:44:00;;;;;;;2.83;2.15;;;22.80;57.00;;;;;;5035090;28;20080;-72
2021/07/23 02:46:25;;;;;;;2.38;2.15;;;22.80;57.40;;;;;;5034976;28;20044;-72
2021/07/23 02:48:51;;;;;;;2.30;2.10;;;22.80;57.60;;;;;;5037788;28;20044;-71
2021/07/23 02:51:17;;;;;;;3.22;2.10;;;22.80;57.40;;;;;;5038916;28;20468;-72
2021/07/23 02:53:42;;;;;;;2.72;2.40;;;22.80;57.40;;;;;;5049212;28;20057;-72
2021/07/23 02:56:08;;;;;;;2.45;2.00;;;22.80;57.30;;;;;;5038733;28;20033;-71
2021/07/23 02:58:42;;;;;;;1.98;1.73;;;22.70;57.60;;;;;;5051507;28;20029;-72
2021/07/23 03:01:08;;;;;;;2.20;2.00;;;22.70;57.60;;;;;;5044672;28;20157;-71
2021/07/23 03:03:34;;;;;;;2.40;2.17;;;22.70;57.40;;;;;;5039004;28;20163;-72
2021/07/23 03:06:00;;;;;;;2.38;2.17;;;22.70;57.70;;;;;;5038639;28;20049;-72
2021/07/23 03:08:26;;;;;;;3.10;2.25;;;22.60;57.90;;;;;;5041925;28;20044;-71
2021/07/23 03:10:52;;;;;;;3.30;2.10;;;22.60;57.60;;;;;;5038442;28;20818;-71
2021/07/23 03:13:18;;;;;;;2.47;2.20;;;22.70;57.40;;;;;;5038526;28;20087;-71
2021/07/23 03:15:43;;;;;;;2.78;2.20;;;22.70;57.40;;;;;;5038514;28;20030;-72
2021/07/23 03:18:09;;;;;;;2.20;2.00;;;22.60;58.00;;;;;;5037404;28;20025;-71
2021/07/23 03:20:37;;;;;;;2.70;2.35;;;22.50;58.00;;;;;;5038649;28;20040;-72
2021/07/23 03:23:06;;;;;;;2.40;2.20;;;22.50;58.00;;;;;;5038375;28;20127;-72
2021/07/23 03:25:32;;;;;;;2.72;2.53;;;22.50;57.60;;;;;;5038446;28;20030;-71
2021/07/23 03:27:58;;;;;;;2.70;2.00;;;22.60;57.20;;;;;;5038448;28;20442;-71
2021/07/23 03:30:24;;;;;;;2.45;2.22;;;22.60;57.50;;;;;;5038459;28;20022;-72
2021/07/23 03:32:49;;;;;;;2.25;2.05;;;22.60;57.40;;;;;;5053317;28;20060;-71
2021/07/23 03:35:15;;;;;;;2.45;2.25;;;22.60;57.40;;;;;;5054945;28;20047;-71
2021/07/23 03:37:41;;;;;;;2.78;2.25;;;22.50;57.70;;;;;;5038119;28;20029;-71
2021/07/23 03:40:08;;;;;;;3.28;2.20;;;22.50;57.80;;;;;;5038484;28;20033;-71
2021/07/23 03:42:34;;;;;;;2.00;1.80;;;22.50;57.90;;;;;;5038112;28;20037;-71
2021/07/23 03:45:00;;;;;;;2.28;2.08;;;22.50;57.70;;;;;;5038103;28;20057;-71
2021/07/23 03:47:26;;;;;;;2.80;2.03;;;22.40;57.90;;;;;;5038013;28;20036;-71
2021/07/23 03:49:51;;;;;;;2.63;2.10;;;22.40;58.30;;;;;;5038084;28;20026;-71
2021/07/23 03:52:17;;;;;;;2.50;2.30;;;22.30;58.10;;;;;;5037954;28;20026;-72
2021/07/23 03:54:43;;;;;;;2.53;2.33;;;22.40;57.90;;;;;;5048715;28;20045;-72
2021/07/23 03:57:09;;;;;;;2.85;2.10;;;22.40;58.40;;;;;;5037876;28;20104;-72
2021/07/23 03:59:35;;;;;;;2.60;2.33;;;22.30;57.90;;;;;;5037613;28;20055;-71
2021/07/23 04:02:01;;;;;;;2.85;2.47;;;22.30;58.20;;;;;;5037701;28;20041;-72
2021/07/23 04:04:27;;;;;;;2.40;2.00;;;22.30;58.50;;;;;;5037913;28;20034;-71
2021/07/23 04:06:59;;;;;;;3.65;2.60;;;22.10;59.20;;;;;;5037897;28;20033;-71
2021/07/23 04:09:26;;;;;;;2.88;2.35;;;22.20;58.90;;;;;;5037477;28;20076;-71
2021/07/23 04:11:52;;;;;;;2.67;2.15;;;22.20;58.60;;;;;;5053686;28;20099;-71
2021/07/23 04:14:18;;;;;;;3.15;2.08;;;22.20;58.80;;;;;;5043122;28;20081;-71
2021/07/23 04:16:44;;;;;;;2.58;2.30;;;22.20;58.70;;;;;;5037663;28;20032;-71
2021/07/23 04:19:10;;;;;;;3.45;2.28;;;22.30;59.30;;;;;;5036300;28;20507;-72
2021/07/23 04:21:36;;;;;;;2.70;2.50;;;22.30;58.40;;;;;;5037539;28;20470;-72
2021/07/23 04:24:01;;;;;;;2.63;2.42;;;22.20;58.70;;;;;;5037503;28;20033;-71
2021/07/23 04:26:27;;;;;;;2.85;2.17;;;22.20;59.00;;;;;;5036125;28;20121;-71
2021/07/23 04:28:53;;;;;;;2.78;2.33;;;22.10;59.40;;;;;;5037390;28;20025;-72
2021/07/23 04:31:19;;;;;;;2.83;2.50;;;22.10;59.10;;;;;;5038233;28;20160;-71
2021/07/23 04:33:45;;;;;;;2.60;2.40;;;22.00;59.60;;;;;;5052106;28;20057;-71
2021/07/23 04:36:10;;;;;;;2.50;2.13;;;22.00;59.40;;;;;;5037184;28;20041;-71
2021/07/23 04:38:36;;;;;;;3.20;2.30;;;22.00;59.50;;;;;;5037257;28;20053;-71
2021/07/23 04:41:03;;;;;;;2.53;2.33;;;22.10;59.30;;;;;;5037209;28;20065;-71
2021/07/23 04:43:31;;;;;;;2.38;2.17;;;22.10;59.30;;;;;;5035905;28;20525;-72
2021/07/23 04:45:57;;;;;;;2.67;2.47;;;22.10;59.70;;;;;;5036523;28;20063;-71
2021/07/23 04:48:23;;;;;;;2.83;2.53;;;22.10;59.20;;;;;;5037130;28;20029;-74
2021/07/23 04:50:50;;;;;;;3.25;2.65;;;22.10;59.30;;;;;;5037209;28;20105;-72
2021/07/23 04:53:16;;;;;;;2.42;2.22;;;22.10;59.20;;;;;;5045629;28;20163;-71
2021/07/23 04:55:41;;;;;;;2.50;2.28;;;22.10;59.20;;;;;;5039318;28;20029;-71
2021/07/23 04:58:07;;;;;;;3.13;2.40;;;22.10;59.10;;;;;;5036753;28;20025;-71
2021/07/23 05:00:33;;;;;;;3.08;2.30;;;22.10;59.40;;;;;;5039058;28;20026;-71
2021/07/23 05:02:59;;;;;;;3.78;2.58;;;22.20;58.90;;;;;;5046589;28;20029;-72
2021/07/23 05:05:25;;;;;;;2.65;2.45;;;22.30;58.60;;;;;;5055510;28;20028;-71
2021/07/23 05:07:50;;;;;;;2.50;2.30;;;22.20;59.10;;;;;;5056620;28;20028;-72
2021/07/23 05:10:17;;;;;;;3.28;2.63;;;22.30;59.30;;;;;;5055424;28;20037;-72
2021/07/23 05:12:43;;;;;;;3.25;2.70;;;22.30;59.20;;;;;;5049538;28;20033;-72
2021/07/23 05:15:11;;;;;;;2.60;2.40;;;22.30;59.10;;;;;;5035733;28;20021;-73
2021/07/23 05:17:38;;;;;;;2.85;2.60;;;22.30;58.70;;;;;;5041080;28;20026;-73
2021/07/23 05:20:06;;;;;;;3.05;2.38;;;22.30;58.40;;;;;;5036525;28;20028;-73
2021/07/23 05:22:32;;;;;;;2.60;2.40;;;22.40;58.50;;;;;;5036731;28;20065;-73
2021/07/23 05:24:59;;;;;;;2.30;2.10;;;22.40;58.80;;;;;;5035270;28;20029;-73
2021/07/23 05:27:25;;;;;;;2.88;2.20;;;22.30;58.70;;;;;;5036267;28;20397;-73
2021/07/23 05:29:51;;;;;;;2.60;2.30;;;22.40;58.60;;;;;;5036275;28;20033;-73
2021/07/23 05:32:17;;;;;;;2.63;2.42;;;22.40;58.60;;;;;;5046448;28;20064;-73
2021/07/23 05:34:43;;;;;;;2.72;2.53;;;22.40;58.60;;;;;;5023189;28;20090;-73
2021/07/23 05:37:09;;;;;;;2.60;2.40;;;22.50;58.20;;;;;;5034249;28;20028;-73
2021/07/23 05:39:34;;;;;;;2.60;2.00;;;22.40;58.90;;;;;;5039794;28;20091;-74
2021/07/23 05:42:03;;;;;;;2.53;2.33;;;22.50;58.20;;;;;;5046160;28;20100;-74
2021/07/23 05:44:31;;;;;;;2.55;2.10;;;22.50;58.90;;;;;;5043881;28;20032;-72
2021/07/23 05:47:00;;;;;;;3.13;2.20;;;22.40;59.30;;;;;;5052305;28;20065;-70
2021/07/23 05:49:27;;;;;;;2.63;2.28;;;22.30;60.50;;;;;;5050708;28;20032;-73
2021/07/23 05:51:53;;;;;;;2.60;2.30;;;22.50;59.00;;;;;;5044900;28;20056;-74
2021/07/23 05:54:19;;;;;;;2.55;2.35;;;22.60;58.50;;;;;;5055569;28;20029;-74
2021/07/23 05:56:45;;;;;;;2.50;2.30;;;22.70;58.90;;;;;;5048592;28;20025;-74
2021/07/23 05:59:10;;;;;;;2.92;2.17;;;22.70;57.90;;;;;;5035624;28;20061;-74
2021/07/23 06:01:36;;;;;;;2.28;2.08;;;22.80;58.10;;;;;;5052103;28;20108;-74
2021/07/23 06:04:01;;;;;;;2.53;2.22;;;22.80;58.00;;;;;;5055039;28;20107;-74
2021/07/23 06:06:27;;;;;;;2.63;2.30;;;22.90;57.30;;;;;;5052986;28;20082;-73
2021/07/23 06:08:58;;;;;;;2.28;2.08;;;23.00;57.60;;;;;;5049317;28;20049;-74
2021/07/23 06:11:24;;;;;;;2.55;2.35;;;23.10;57.40;;;;;;5049204;28;20032;-74
2021/07/23 06:13:49;;;;;;;2.42;2.22;;;23.20;57.10;;;;;;5039485;28;20108;-74
2021/07/23 06:16:15;;;;;;;2.53;2.22;;;23.20;56.90;;;;;;5035275;28;20025;-74
2021/07/23 06:18:41;;;;;;;2.50;2.28;;;23.30;56.50;;;;;;5035520;28;20030;-74
2021/07/23 06:21:07;;;;;;;2.40;2.20;;;23.30;56.80;;;;;;5035138;28;20022;-74
2021/07/23 06:23:32;;;;;;;2.47;2.28;;;23.40;56.50;;;;;;5033774;28;20045;-74
2021/07/23 06:26:02;;;;;;;2.38;2.17;;;23.50;56.40;;;;;;5034993;28;20059;-74
2021/07/23 06:28:27;;;;;;;2.47;2.27;;;23.60;56.20;;;;;;5035371;28;20033;-74
2021/07/23 06:30:59;;;;;;;2.42;2.08;;;23.60;56.10;;;;;;5034910;28;20049;-74
2021/07/23 06:33:38;;;;;;;2.20;2.00;;;23.70;55.80;;;;;;5071085;28;20445;-73
2021/07/23 06:36:03;;;;;;;3.00;2.10;;;23.80;56.30;;;;;;5056413;28;20021;-73
2021/07/23 06:38:29;;;;;;;2.42;2.22;;;23.80;55.90;;;;;;5070575;28;20021;-73
2021/07/23 06:40:55;;;;;;;2.45;2.20;;;23.80;55.90;;;;;;5051703;28;20029;-73
2021/07/23 06:43:21;;;;;;;2.83;2.30;;;23.80;54.80;;;;;;5053484;28;20102;-73
2021/07/23 06:45:53;;;;;;;2.45;1.90;;;23.90;55.20;;;;;;5050589;28;20051;-73
2021/07/23 06:48:19;;;;;;;2.80;2.25;;;24.00;55.50;;;;;;5058330;28;20487;-73
2021/07/23 06:50:45;;;;;;;2.30;1.90;;;24.10;54.80;;;;;;5071902;28;20051;-73
2021/07/23 06:53:11;;;;;;;4.40;2.20;;;24.30;54.50;;;;;;5063771;28;20033;-73
2021/07/23 06:55:36;;;;;;;2.60;2.03;;;24.30;54.80;;;;;;5052151;28;20017;-73
2021/07/23 06:58:02;;;;;;;2.33;2.10;;;24.40;54.10;;;;;;5062358;28;20032;-72
2021/07/23 07:00:28;;;;;;;2.05;1.80;;;24.50;54.10;;;;;;5061125;28;20021;-72
2021/07/23 07:02:53;;;;;;;2.70;2.10;;;24.70;54.10;;;;;;5043072;28;20024;-73
2021/07/23 07:05:19;;;;;;;2.63;2.05;;;24.90;54.00;;;;;;5051273;28;20540;-73
2021/07/23 07:07:45;;;;;;;2.75;2.10;;;25.10;52.70;;;;;;5050690;28;20029;-73
2021/07/23 07:10:11;;;;;;;2.55;2.13;;;25.20;52.60;;;;;;5071137;28;20036;-73
2021/07/23 07:12:36;;;;;;;4.25;2.00;;;25.20;51.90;;;;;;5071854;28;20395;-72
2021/07/23 07:15:02;;;;;;;1.95;1.70;;;25.30;52.30;;;;;;5070956;28;20024;-73
2021/07/23 07:17:31;;;;;;;3.55;1.75;;;25.30;52.70;;;;;;5067710;28;20057;-73
2021/07/23 07:19:59;;;;;;;2.58;2.10;;;25.50;52.00;;;;;;5050246;28;20025;-73
2021/07/23 07:22:26;;;;;;;1.73;1.58;;;25.70;51.90;;;;;;5052020;28;20080;-73
2021/07/23 07:24:52;;;;;;;2.35;1.83;;;25.90;51.80;;;;;;5051580;28;20118;-73
2021/07/23 07:27:18;;;;;;;2.22;1.73;;;26.50;49.60;;;;;;5051367;28;20051;-73
2021/07/23 07:29:44;;;;;;;2.60;1.90;;;27.00;48.30;;;;;;5057098;28;20107;-73
2021/07/23 07:32:09;;;;;;;2.30;1.90;;;26.80;49.10;;;;;;5071028;28;20070;-73
2021/07/23 07:34:36;;;;;;;2.05;1.75;;;27.00;48.10;;;;;;5058490;28;20507;-73
2021/07/23 07:37:03;;;;;;;3.10;1.70;;;27.30;47.90;;;;;;5050937;28;20033;-73
2021/07/23 07:39:28;;;;;;;2.13;1.70;;;28.20;46.20;;;;;;5051482;28;20027;-74
2021/07/23 07:41:55;;;;;;;2.35;1.67;;;30.00;42.80;;;;;;5070847;28;20487;-74
2021/07/23 07:44:20;;;;;;;2.22;1.92;;;31.20;39.70;;;;;;5052143;28;20078;-74
2021/07/23 07:46:46;;;;;;;2.58;1.80;;;32.30;38.00;;;;;;5047359;28;20033;-74
2021/07/23 07:49:12;;;;;;;1.85;1.75;;;32.90;36.30;;;;;;5036961;28;20029;-73
2021/07/23 07:51:38;;;;;;;1.70;1.60;;;32.70;36.20;;;;;;5016231;28;20033;-74
2021/07/23 07:54:03;;;;;;;1.75;1.60;;;33.40;35.00;;;;;;5048153;28;20021;-74
2021/07/23 07:56:29;;;;;;;1.67;1.40;;;34.30;33.70;;;;;;5040994;28;20403;-74
2021/07/23 07:58:55;;;;;;;2.65;1.40;;;35.00;33.00;;;;;;5057583;28;20025;-74
2021/07/23 08:01:21;;;;;;;2.78;1.50;;;35.10;31.90;;;;;;5057385;28;20029;-74
2021/07/23 08:03:46;;;;;;;1.90;1.35;;;35.30;31.60;;;;;;5057415;28;20502;-74
2021/07/23 08:06:24;;;;;;;1.48;1.38;;;35.60;31.10;;;;;;5046957;28;20026;-74
2021/07/23 08:08:51;;;;;;;1.77;1.30;;;36.10;30.90;;;;;;5017608;28;20492;-74
2021/07/23 08:11:17;;;;;;;2.05;1.50;;;37.20;29.60;;;;;;5017625;28;20148;-74
2021/07/23 08:13:43;;;;;;;2.65;1.20;;;37.80;29.30;;;;;;5017951;28;20094;-74
2021/07/23 08:16:10;;;;;;;2.17;1.50;;;38.40;28.10;;;;;;5027648;28;20039;-74
2021/07/23 08:18:36;;;;;;;2.40;1.40;;;38.50;27.10;;;;;;5057333;28;20032;-74
2021/07/23 08:21:03;;;;;;;1.33;1.23;;;39.50;26.40;;;;;;5048499;28;20029;-75
2021/07/23 08:23:29;;;;;;;1.50;1.38;;;39.60;25.60;;;;;;5058964;28;20033;-74
2021/07/23 08:25:55;;;;;;;2.13;1.50;;;39.50;25.80;;;;;;5057392;28;20598;-74
2021/07/23 08:28:21;;;;;;;1.30;1.10;;;39.40;26.80;;;;;;5057194;28;20047;-74
2021/07/23 08:30:46;;;;;;;2.13;1.40;;;37.90;28.40;;;;;;5051940;28;20072;-74
2021/07/23 08:33:12;;;;;;;1.42;1.20;;;36.20;29.90;;;;;;5037075;28;20473;-73
2021/07/23 08:35:39;;;;;;;1.40;1.20;;;35.20;32.00;;;;;;5036877;28;20045;-74
2021/07/23 08:38:05;;;;;;;1.50;1.30;;;33.40;34.00;;;;;;5036920;28;20025;-73
2021/07/23 08:40:31;;;;;;;1.92;1.42;;;32.00;35.20;;;;;;5041226;28;20108;-73
2021/07/23 08:42:57;;;;;;;1.60;1.50;;;31.40;37.20;;;;;;5051539;28;20049;-73
2021/07/23 08:45:22;;;;;;;2.10;1.70;;;31.00;37.60;;;;;;5040979;28;20519;-74
2021/07/23 08:47:48;;;;;;;2.70;2.00;;;30.40;38.60;;;;;;5036852;28;20025;-73
2021/07/23 08:50:14;;;;;;;1.80;1.60;;;30.60;39.60;;;;;;5044514;28;20025;-73
2021/07/23 08:52:45;;;;;;;1.92;1.65;;;31.30;38.70;;;;;;5053026;28;20025;-73
2021/07/23 08:55:16;;;;;;;1.75;1.60;;;31.30;38.40;;;;;;5035659;28;20037;-73
2021/07/23 08:57:43;;;;;;;1.77;1.50;;;31.80;37.60;;;;;;5036710;28;20052;-74
2021/07/23 09:00:16;;;;;;;2.00;1.58;;;31.60;37.30;;;;;;5051846;28;20098;-73
2021/07/23 09:03:01;;;;;;;1.88;1.60;;;31.10;38.10;;;;;;5056533;28;20483;-73
2021/07/23 09:05:41;;;;;;;1.60;1.50;;;30.30;40.10;;;;;;5054696;28;20029;-73
2021/07/23 09:08:15;;;;;;;1.92;1.60;;;30.10;40.30;;;;;;5056094;28;20024;-73
2021/07/23 09:10:41;;;;;;;1.73;1.55;;;30.10;41.00;;;;;;5056263;28;20056;-73
2021/07/23 09:13:07;;;;;;;2.28;1.92;;;29.40;41.30;;;;;;5056195;28;20031;-73
2021/07/23 09:15:43;;;;;;;2.00;1.80;;;29.20;42.00;;;;;;5038709;28;20025;-73
2021/07/23 09:18:35;;;;;;;1.77;1.60;;;29.60;43.70;;;;;;5036448;28;20045;-73
2021/07/23 09:21:03;;;;;;;2.47;1.83;;;29.90;42.30;;;;;;5035665;28;20467;-72
2021/07/23 09:23:31;;;;;;;2.70;1.70;;;30.00;41.60;;;;;;5036190;28;20032;-73
2021/07/23 09:26:18;;;;;;;2.50;1.50;;;30.30;40.70;;;;;;5035755;28;20097;-73
2021/07/23 09:28:45;;;;;;;1.90;1.70;;;30.90;40.40;;;;;;5035511;28;20662;-74
2021/07/23 09:31:21;;;;;;;1.67;1.45;;;31.60;39.00;;;;;;5037979;28;20055;-74
2021/07/23 09:33:51;;;;;;;1.70;1.55;;;32.70;37.90;;;;;;5055579;28;20032;-73
2021/07/23 09:36:17;;;;;;;3.75;1.60;;;33.60;35.80;;;;;;5054598;28;20036;-73
2021/07/23 09:38:44;;;;;;;1.95;1.75;;;33.80;35.90;;;;;;5055980;28;20017;-73
2021/07/23 09:41:26;;;;;;;1.73;1.63;;;33.50;36.30;;;;;;5053898;28;20404;-73
2021/07/23 09:43:58;;;;;;;2.05;1.80;;;32.40;37.30;;;;;;5042768;28;20391;-73
2021/07/23 09:46:26;;;;;;;2.42;1.85;;;31.70;38.60;;;;;;5035585;28;20132;-73
2021/07/23 09:48:54;;;;;;;2.10;1.80;;;31.00;39.40;;;;;;5035877;28;20451;-73
2021/07/23 09:51:21;;;;;;;2.10;1.70;;;30.20;40.20;;;;;;5049591;28;20025;-73
2021/07/23 09:53:47;;;;;;;1.40;1.23;;;29.60;41.20;;;;;;5042442;28;20049;-73
2021/07/23 09:56:13;;;;;;;1.83;1.70;;;29.10;42.30;;;;;;5035286;28;20423;-73
2021/07/23 09:58:45;;;;;;;2.25;1.60;;;28.80;42.80;;;;;;5035461;28;20025;-73
2021/07/23 10:01:33;;;;;;;1.92;1.60;;;28.60;42.90;;;;;;5035360;28;20048;-73
2021/07/23 10:04:20;;;;;;;2.58;1.85;;;28.40;43.10;;;;;;5035458;28;20030;-73
2021/07/23 10:07:15;;;;;;;2.20;1.80;;;28.50;43.60;;;;;;5035234;28;20022;-73
2021/07/23 10:09:43;;;;;;;1.90;1.70;;;29.00;42.90;;;;;;5034972;28;20042;-73
2021/07/23 10:12:12;;;;;;;2.85;1.60;;;29.50;42.20;;;;;;5034124;28;20041;-73
2021/07/23 10:14:41;;;;;;;2.30;1.88;;;29.40;43.60;;;;;;5035168;28;20519;-73
2021/07/23 10:17:08;;;;;;;1.80;1.70;;;29.70;43.40;;;;;;5051477;28;20040;-73
2021/07/23 10:19:36;;;;;;;2.25;1.65;;;29.90;41.90;;;;;;5052335;28;20025;-73
2021/07/23 10:22:03;;;;;;;2.83;1.75;;;30.00;42.40;;;;;;5034125;28;20038;-73
2021/07/23 10:24:35;;;;;;;2.25;1.90;;;29.60;45.90;;;;;;5050611;28;20448;-73
2021/07/23 10:27:09;;;;;;;1.92;1.73;;;29.60;44.80;;;;;;5048377;28;20059;-73
2021/07/23 10:29:43;;;;;;;1.88;1.67;;;29.50;42.60;;;;;;5054023;28;20025;-74
2021/07/23 10:32:34;;;;;;;2.20;1.77;;;29.90;43.60;;;;;;5038134;28;20055;-73
2021/07/23 10:35:20;;;;;;;2.67;1.50;;;30.00;43.00;;;;;;5035071;28;20044;-73
2021/07/23 10:37:52;;;;;;;2.20;1.90;;;29.90;40.80;;;;;;5035222;28;20029;-73
2021/07/23 10:40:20;;;;;;;2.75;1.67;;;30.10;40.80;;;;;;5034957;28;20033;-74
2021/07/23 10:42:47;;;;;;;1.75;1.55;;;30.70;42.30;;;;;;5035133;28;20028;-73
2021/07/23 10:45:19;;;;;;;2.15;1.75;;;31.20;42.20;;;;;;5035019;28;20096;-73
2021/07/23 10:47:47;;;;;;;3.25;1.70;;;31.20;42.00;;;;;;5035112;28;20048;-73
2021/07/23 10:50:25;;;;;;;2.70;1.58;;;30.80;40.70;;;;;;5048334;28;20471;-73
2021/07/23 10:52:52;;;;;;;2.33;1.77;;;30.30;40.30;;;;;;5037380;28;20040;-73
2021/07/23 10:55:27;;;;;;;1.83;1.70;;;30.00;41.70;;;;;;5035060;28;20040;-73
2021/07/23 10:58:05;;;;;;;3.85;1.90;;;30.40;41.50;;;;;;5034870;28;20483;-73
2021/07/23 11:00:52;;;;;;;1.98;1.67;;;30.60;39.50;;;;;;5034914;28;20486;-73
2021/07/23 11:03:42;;;;;;;2.75;1.92;;;29.90;39.80;;;;;;5034870;28;20064;-73
2021/07/23 11:06:23;;;;;;;2.17;1.60;;;29.70;41.70;;;;;;5034797;28;20068;-73
2021/07/23 11:08:53;;;;;;;2.17;1.60;;;29.30;40.90;;;;;;5036814;28;20025;-73
2021/07/23 11:11:23;;;;;;;2.13;1.92;;;28.90;42.50;;;;;;5054642;28;20487;-73
2021/07/23 11:13:49;;;;;;;2.20;1.63;;;28.60;42.70;;;;;;5054857;28;20021;-73
2021/07/23 11:16:17;;;;;;;2.45;1.88;;;28.40;43.60;;;;;;5051713;28;20052;-73
2021/07/23 11:18:59;;;;;;;2.40;1.88;;;28.10;43.20;;;;;;5055819;28;20029;-73
2021/07/23 11:21:36;;;;;;;2.50;1.70;;;28.00;44.20;;;;;;5048959;28;20026;-73
2021/07/23 11:24:08;;;;;;;3.78;1.60;;;28.00;44.20;;;;;;5042969;28;20509;-73
2021/07/23 11:26:34;;;;;;;2.00;1.80;;;28.10;44.00;;;;;;5042367;28;20025;-73
2021/07/23 11:28:59;;;;;;;2.97;2.00;;;28.20;43.70;;;;;;5038509;28;20014;-73
2021/07/23 11:31:31;;;;;;;1.80;1.50;;;28.40;44.40;;;;;;5038501;28;20032;-73
2021/07/23 11:33:58;;;;;;;1.88;1.67;;;28.60;44.10;;;;;;5053506;28;20164;-73
2021/07/23 11:36:38;;;;;;;2.38;1.63;;;28.70;44.00;;;;;;5058116;28;20092;-73
2021/07/23 11:39:08;;;;;;;3.42;1.65;;;28.80;44.00;;;;;;5018716;28;20022;-74
2021/07/23 11:41:35;;;;;;;3.55;1.60;;;28.80;43.60;;;;;;5033702;28;20022;-73
2021/07/23 11:44:08;;;;;;;1.90;1.70;;;29.00;43.80;;;;;;5034229;28;20458;-74
2021/07/23 11:46:35;;;;;;;2.42;1.63;;;29.20;43.20;;;;;;5049184;28;20028;-73
2021/07/23 11:49:01;;;;;;;2.10;1.90;;;29.60;43.00;;;;;;5037967;28;20021;-73
2021/07/23 11:51:42;;;;;;;2.25;1.33;;;30.20;43.30;;;;;;5038032;28;20033;-72
2021/07/23 11:54:09;;;;;;;2.33;1.55;;;30.80;42.10;;;;;;5047482;28;20031;-75
2021/07/23 11:56:35;;;;;;;2.63;1.60;;;31.10;41.50;;;;;;5057793;28;20093;-73
2021/07/23 11:59:03;;;;;;;1.90;1.58;;;30.80;41.50;;;;;;5057780;28;20454;-75
2021/07/23 12:01:36;;;;;;;2.60;1.58;;;31.00;42.10;;;;;;5056376;28;20029;-74
2021/07/23 12:04:02;;;;;;;2.33;1.80;;;31.10;42.00;;;;;;5040140;28;20036;-74
2021/07/23 12:06:31;;;;;;;2.17;1.65;;;30.80;39.20;;;;;;5037387;28;20121;-74
2021/07/23 12:09:05;;;;;;;1.90;1.70;;;30.90;41.70;;;;;;5037990;28;20029;-75
2021/07/23 12:11:32;;;;;;;1.85;1.50;;;31.00;40.00;;;;;;5046283;28;20063;-75
2021/07/23 12:14:08;;;;;;;1.90;1.67;;;31.20;39.20;;;;;;5056240;28;20021;-74
2021/07/23 12:16:35;;;;;;;3.10;1.80;;;31.30;41.30;;;;;;5056175;28;20031;-74
2021/07/23 12:19:04;;;;;;;2.25;1.60;;;31.10;40.10;;;;;;5046017;28;20030;-74
2021/07/23 12:21:30;;;;;;;1.90;1.40;;;31.30;40.90;;;;;;5036963;28;20033;-75
2021/07/23 12:24:00;;;;;;;2.00;1.80;;;31.30;39.60;;;;;;5037514;28;20396;-75
2021/07/23 12:26:35;;;;;;;3.78;2.13;;;31.30;39.50;;;;;;5056558;28;20111;-74
2021/07/23 12:29:02;;;;;;;2.03;1.58;;;31.10;37.60;;;;;;5055478;28;20025;-75
2021/07/23 12:31:28;;;;;;;1.70;1.50;;;31.10;39.50;;;;;;5056706;28;20044;-74
2021/07/23 12:34:22;;;;;;;2.20;1.70;;;31.10;39.60;;;;;;5057128;28;20017;-75
2021/07/23 12:36:52;;;;;;;2.15;1.55;;;31.20;40.00;;;;;;5057114;28;20067;-74
2021/07/23 12:39:22;;;;;;;2.22;1.80;;;31.40;38.70;;;;;;5056967;28;20036;-75
2021/07/23 12:41:48;;;;;;;2.53;1.60;;;31.50;38.70;;;;;;5037924;28;20120;-75
2021/07/23 12:44:18;;;;;;;1.52;1.42;;;31.40;38.30;;;;;;5039373;28;20044;-74
2021/07/23 12:46:49;;;;;;;2.47;1.77;;;31.50;39.30;;;;;;5036175;28;20352;-74
2021/07/23 12:49:19;;;;;;;1.55;1.45;;;31.30;38.30;;;;;;5017914;28;20053;-74
2021/07/23 12:51:46;;;;;;;2.90;1.67;;;31.30;37.90;;;;;;5035392;28;20048;-75